Terminal Aerodrome Forecast
Issued by NWS Los Angeles, CA

Home | Current Version | Previous Version | Text Only | Print | Product List | Glossary On
Versions: 1 2 3 4 5 6 7 8 9 10 11 12 13 14 15 16 17 18 19 20 21 22 23 24 25 26 27 28 29 30 31 32 33 34 35 36 37 38 39 40 41 42 43 44 45 46 47 48 49 50
000
FTUS46 KLOX 240747 AAA
TAFSMX
TAF AMD
KSMX 240747Z 2408/2506 VRB03KT 1/2SM FG VV002
     FM241500 VRB03KT 2SM BR OVC003
     FM241700 VRB03KT 5SM BR OVC005
     FM241800 23005KT P6SM SCT010
     FM242000 30010KT P6SM SKC
     FM250400 VRB03KT 4SM BR OVC006=

USA.gov is the U.S. government's official web portal to all federal, state and local government web resources and services.